Ambrie Dupre — WDI2693 — position and weather

sailwx.info

Track history (hours):
 
Tides and Currents Weather Stations Pressure Air Temp Water Temp Dewpoint Dewpoint Depression Visibility Wind Speed Wind Dir Waves Ship Positions

Ambrie Dupre

Owner: Dupre Marine Transportation, LCC, Houma, LA. More information available from US FCC via Universal Licensing System and Coast Guard Vessel Documentation Center.

Last reported at 2018-May-19 19:09 UTC. Time now 2018-May-20 09:50 UTC.
Position N 29°46' W 095°04'.

Length 24 m; draft 3 m.

Type: . MMSI: 367680760.

Date/timePositionNaut miles runAvg speedWind from/ knotsBaromVisibWave heightAir tempDewpointWater temp
2018-May-19 19:09N 29°46' W 095°04'2 0.2
2018-May-19 05:54N 29°44' W 095°03'0 0.0
2018-May-19 04:26N 29°44' W 095°03'0 0.0
2018-May-19 02:33N 29°44' W 095°03'0 0.0
2018-May-19 02:28N 29°44' W 095°03'0 0.1
2018-May-18 21:30N 29°44' W 095°03'5 2.9
2018-May-18 19:53N 29°44' W 095°09'2 0.2
2018-May-18 13:40N 29°45' W 095°10'1 6.2
2018-May-18 13:29N 29°44' W 095°09'3 2.0
2018-May-18 11:47N 29°46' W 095°06'3 5.1
2018-May-18 11:17N 29°44' W 095°08'2 6.2
2018-May-18 10:59N 29°45' W 095°10'1 1.4
2018-May-18 10:30N 29°45' W 095°10'0 0.0
2018-May-18 10:00N 29°45' W 095°10'0 0.0
2018-May-18 09:30N 29°45' W 095°10'0 0.0
2018-May-18 09:00N 29°45' W 095°10'0 0.0
2018-May-18 08:30N 29°45' W 095°10'0 0.0
2018-May-18 08:00N 29°45' W 095°10'0 0.0
2018-May-18 07:30N 29°45' W 095°10'0 0.0
2018-May-18 07:00N 29°45' W 095°10'0 0.0
2018-May-18 06:30N 29°45' W 095°10'0 0.0
2018-May-18 06:00N 29°45' W 095°10'0 0.0
2018-May-18 05:30N 29°45' W 095°10'0 0.0
2018-May-18 05:00N 29°45' W 095°10'0 0.0
2018-May-18 04:30N 29°45' W 095°10'0 0.0
2018-May-18 04:00N 29°45' W 095°10'0 0.0
2018-May-18 03:30N 29°45' W 095°10'0 0.0
2018-May-18 03:00N 29°45' W 095°10'0 0.5
2018-May-18 02:30N 29°45' W 095°10'0 0.3
2018-May-18 01:50N 29°45' W 095°10'0 0.0
2018-May-18 01:28N 29°45' W 095°10'0 0.1
2018-May-17 20:32N 29°45' W 095°10'0 3.4
2018-May-17 20:24N 29°45' W 095°10'0 0.2
2018-May-17 18:26N 29°45' W 095°10'0 0.2
2018-May-17 17:06N 29°45' W 095°10'0 0.4
2018-May-17 16:05N 29°45' W 095°10'1 5.2
2018-May-17 15:51N 29°44' W 095°09'0 0.8
2018-May-17 15:25N 29°44' W 095°09'2 2.0
2018-May-17 14:40N 29°45' W 095°10'0 1.8
2018-May-17 14:23N 29°45' W 095°10'0 0.0
2018-May-17 14:00N 29°45' W 095°10'0 0.0
2018-May-17 13:30N 29°45' W 095°10'0 0.0
2018-May-17 13:00N 29°45' W 095°10'0 0.0
2018-May-17 12:29N 29°45' W 095°10'0 0.0
2018-May-17 11:52N 29°45' W 095°10'0 0.0
2018-May-17 11:30N 29°45' W 095°10'0 0.0
2018-May-17 10:57N 29°45' W 095°10'0 0.0
2018-May-17 10:29N 29°45' W 095°10'0 0.0
2018-May-17 10:00N 29°45' W 095°10'0 0.0
2018-May-17 09:30N 29°45' W 095°10'0 0.0
2018-May-17 09:00N 29°45' W 095°10'0 0.3
2018-May-17 08:27N 29°45' W 095°10'0 0.0
2018-May-17 08:00N 29°45' W 095°10'0 0.1
2018-May-17 07:30N 29°45' W 095°10'0 0.1
2018-May-17 06:45N 29°45' W 095°10'0 1.7
2018-May-17 06:28N 29°45' W 095°10'2 3.5
2018-May-17 05:58N 29°44' W 095°08'2 5.2
2018-May-17 05:30N 29°45' W 095°06'2 3.5
2018-May-17 05:00N 29°45' W 095°04'2 4.9
2018-May-17 04:30N 29°43' W 095°01'2 4.4
2018-May-17 03:59N 29°42' W 094°60'2 5.1
2018-May-17 03:30N 29°40' W 094°58'3 5.8
2018-May-17 03:00N 29°37' W 094°57'3 5.7
2018-May-17 02:30N 29°34' W 094°56'3 5.6
2018-May-17 02:00N 29°32' W 094°54'3 5.5
2018-May-17 01:30N 29°30' W 094°52'3 5.8
2018-May-17 01:00N 29°27' W 094°51'3 5.9
2018-May-17 00:30N 29°24' W 094°49'3 5.4
2018-May-17 00:00N 29°22' W 094°47'3 5.2
2018-May-16 23:30N 29°24' W 094°45'1 2.4
2018-May-16 23:00N 29°25' W 094°44'1 2.7
2018-May-16 22:30N 29°26' W 094°43'0 0.2
2018-May-16 22:00N 29°26' W 094°43'0 0.0
2018-May-16 21:30N 29°26' W 094°43'0 0.0
2018-May-16 21:00N 29°26' W 094°43'0 0.0
2018-May-16 20:30N 29°26' W 094°43'0 0.0
2018-May-16 20:00N 29°26' W 094°43'15 3.0
2018-May-16 15:03N 29°33' W 094°28'1 3.1
2018-May-16 14:53N 29°33' W 094°28'2 4.5
2018-May-16 14:30N 29°34' W 094°26'2 3.9
2018-May-16 14:00N 29°35' W 094°25'2 4.0
2018-May-16 13:30N 29°36' W 094°23'2 4.7
2018-May-16 13:00N 29°37' W 094°20'2 4.8
2018-May-16 12:30N 29°38' W 094°18'2 5.0
2018-May-16 12:00N 29°39' W 094°15'3 5.1
2018-May-16 11:30N 29°40' W 094°13'3 5.1
2018-May-16 11:00N 29°41' W 094°10'2 4.7
2018-May-16 10:30N 29°43' W 094°08'3 5.1
2018-May-16 10:00N 29°44' W 094°05'3 5.1
2018-May-16 09:30N 29°46' W 094°03'3 5.1
2018-May-16 09:00N 29°47' W 094°01'2 4.4
2018-May-16 08:30N 29°49' W 093°59'2 4.0
2018-May-16 08:00N 29°50' W 093°57'3 6.4
2018-May-16 07:30N 29°53' W 093°55'4 7.3
2018-May-16 07:00N 29°56' W 093°53'3 6.1
2018-May-16 06:30N 29°59' W 093°52'3 6.5
2018-May-16 06:00N 29°59' W 093°55'3 5.6
2018-May-16 05:30N 30°01' W 093°58'3 5.5
2018-May-16 05:00N 30°01' W 094°01'3 5.4
2018-May-16 04:30N 30°04' W 094°02'1 1.8
2018-May-16 03:58N 30°04' W 094°03'1 2.0
2018-May-16 03:29N 30°05' W 094°04'0 0.0
2018-May-16 03:00N 30°05' W 094°04'0 0.0
2018-May-16 02:30N 30°05' W 094°04'0 0.0
2018-May-16 02:00N 30°05' W 094°04'0 0.0
2018-May-16 01:30N 30°05' W 094°04'0 0.0
2018-May-16 00:59N 30°05' W 094°04'0 0.0
2018-May-16 00:27N 30°05' W 094°04'0 0.0
2018-May-16 00:00N 30°05' W 094°04'0 0.0
2018-May-15 23:30N 30°05' W 094°04'0 0.0
2018-May-15 23:00N 30°05' W 094°04'0 0.0
2018-May-15 22:30N 30°05' W 094°04'0 0.0
2018-May-15 22:00N 30°05' W 094°04'0 0.0
2018-May-15 21:30N 30°05' W 094°04'0 0.0
2018-May-15 21:00N 30°05' W 094°04'0 0.0
2018-May-15 20:30N 30°05' W 094°04'0 0.0
2018-May-15 20:00N 30°05' W 094°04'0 0.0
2018-May-15 19:30N 30°05' W 094°04'0 0.0
2018-May-15 19:00N 30°05' W 094°04'0 0.0
2018-May-15 18:30N 30°05' W 094°04'0 0.0
2018-May-15 18:00N 30°05' W 094°04'0 0.0
2018-May-15 17:30N 30°05' W 094°04'0 0.0
2018-May-15 17:00N 30°05' W 094°04'0 0.0
2018-May-15 16:30N 30°05' W 094°04'0 0.0
2018-May-15 16:00N 30°05' W 094°04'0 0.0
2018-May-15 15:30N 30°05' W 094°04'0 0.0
2018-May-15 14:59N 30°05' W 094°04'0 0.0
2018-May-15 14:30N 30°05' W 094°04'0 0.0
2018-May-15 14:00N 30°05' W 094°04'0 0.0
2018-May-15 13:30N 30°05' W 094°04'0 0.0
2018-May-15 13:00N 30°05' W 094°04'0 0.0
2018-May-15 12:28N 30°05' W 094°04'0 0.0
2018-May-15 12:00N 30°05' W 094°04'0 0.0
2018-May-15 11:30N 30°05' W 094°04'0 0.0
2018-May-15 11:00N 30°05' W 094°04'0 0.0
2018-May-15 10:30N 30°05' W 094°04'0 0.0
2018-May-15 09:59N 30°05' W 094°04'0 0.0
2018-May-15 09:30N 30°05' W 094°04'0 0.0
2018-May-15 09:00N 30°05' W 094°04'0 0.0
2018-May-15 08:30N 30°05' W 094°04'0 0.0
2018-May-15 08:00N 30°05' W 094°04'0 0.0
2018-May-15 07:30N 30°05' W 094°04'0 0.0
2018-May-15 06:59N 30°05' W 094°04'0 0.0
2018-May-15 06:30N 30°05' W 094°04'0 0.0
2018-May-15 05:59N 30°05' W 094°04'0 0.0
2018-May-15 05:30N 30°05' W 094°04'0 0.0
2018-May-15 05:00N 30°05' W 094°04'0 0.0
2018-May-15 04:30N 30°05' W 094°04'0 0.0
2018-May-15 04:00N 30°05' W 094°04'0 0.0
2018-May-15 03:30N 30°05' W 094°04'0 0.0
2018-May-15 03:00N 30°05' W 094°04'0 0.0
2018-May-15 02:30N 30°05' W 094°04'0 0.0
2018-May-15 02:00N 30°05' W 094°04'0 0.0
2018-May-15 01:28N 30°05' W 094°04'0 0.0
2018-May-15 01:00N 30°05' W 094°04'0 0.0
2018-May-15 00:30N 30°05' W 094°04'0 0.0
2018-May-15 00:00N 30°05' W 094°04'0 0.0
2018-May-14 23:30N 30°05' W 094°04'0 0.0
2018-May-14 22:58N 30°05' W 094°04'0 0.0
2018-May-14 22:30N 30°05' W 094°04'0 0.0
2018-May-14 22:00N 30°05' W 094°04'0 0.0
2018-May-14 21:30N 30°05' W 094°04'0 0.0
2018-May-14 21:00N 30°05' W 094°04'0 0.0
2018-May-14 20:30N 30°05' W 094°04'0 0.0
2018-May-14 20:00N 30°05' W 094°04'0 0.0
2018-May-14 19:29N 30°05' W 094°04'0 0.0
2018-May-14 19:00N 30°05' W 094°04'0 0.0
2018-May-14 18:30N 30°05' W 094°04'0 0.0
2018-May-14 18:00N 30°05' W 094°04'0 0.0
2018-May-14 17:30N 30°05' W 094°04'0 0.0
2018-May-14 17:00N 30°05' W 094°04'0 0.0
2018-May-14 16:30N 30°05' W 094°04'0 0.0
2018-May-14 16:00N 30°05' W 094°04'0 0.0
2018-May-14 15:30N 30°05' W 094°04'0 0.0
2018-May-14 15:00N 30°05' W 094°04'0 0.0
2018-May-14 14:30N 30°05' W 094°04'0 0.0
2018-May-14 14:00N 30°05' W 094°04'0 0.0
2018-May-14 13:30N 30°05' W 094°04'0 0.0
2018-May-14 13:00N 30°05' W 094°04'0 0.0
2018-May-14 12:30N 30°05' W 094°04'0 0.0
2018-May-14 12:00N 30°05' W 094°04'0 0.0
2018-May-14 11:30N 30°05' W 094°04'0 0.0
2018-May-14 10:59N 30°05' W 094°04'0 0.0
2018-May-14 10:30N 30°05' W 094°04'0 0.0
2018-May-14 10:00N 30°05' W 094°04'0 0.0
2018-May-14 09:29N 30°05' W 094°04'0 0.1
2018-May-14 09:00N 30°05' W 094°04'0 0.0
2018-May-14 08:30N 30°05' W 094°04'1 2.2
2018-May-14 08:00N 30°04' W 094°03'0 0.0
2018-May-14 07:30N 30°04' W 094°03'0 0.0
2018-May-14 07:00N 30°04' W 094°03'0 0.0
2018-May-14 06:30N 30°04' W 094°03'0 0.0
2018-May-14 06:00N 30°04' W 094°03'0 0.0
2018-May-14 05:30N 30°04' W 094°03'0 0.0
2018-May-14 04:59N 30°04' W 094°03'0 0.0
2018-May-14 04:30N 30°04' W 094°03'0 0.0
2018-May-14 04:00N 30°04' W 094°03'0 0.0
2018-May-14 03:30N 30°04' W 094°03'0 0.0
2018-May-14 02:59N 30°04' W 094°03'0 0.0
2018-May-14 02:29N 30°04' W 094°03'0 0.0
2018-May-14 02:00N 30°04' W 094°03'0 0.0
2018-May-14 01:30N 30°04' W 094°03'1 1.0
2018-May-14 01:00N 30°04' W 094°03'3 5.9
2018-May-14 00:30N 30°01' W 094°01'3 5.9
2018-May-14 00:00N 30°01' W 093°58'3 6.2
2018-May-13 23:30N 29°59' W 093°55'3 6.5
2018-May-13 23:00N 29°58' W 093°51'1 1.9
2018-May-13 22:30N 29°57' W 093°52'1 1.6
2018-May-13 22:00N 29°58' W 093°51'0 0.5
2018-May-13 21:30N 29°58' W 093°52'0 0.0
2018-May-13 21:00N 29°58' W 093°52'0 0.0
2018-May-13 20:30N 29°58' W 093°52'0 0.0
2018-May-13 20:00N 29°58' W 093°52'0 0.0
2018-May-13 19:30N 29°58' W 093°52'0 0.0
2018-May-13 19:00N 29°58' W 093°52'0 0.0
2018-May-13 18:30N 29°58' W 093°52'0 0.0
2018-May-13 18:00N 29°58' W 093°52'0 0.0
2018-May-13 17:30N 29°58' W 093°52'0 0.0
2018-May-13 17:00N 29°58' W 093°52'0 0.0
2018-May-13 16:30N 29°58' W 093°52'0 0.0
2018-May-13 16:00N 29°58' W 093°52'0 0.0
2018-May-13 15:30N 29°58' W 093°52'0 0.0
2018-May-13 15:00N 29°58' W 093°52'0 0.0
2018-May-13 14:30N 29°58' W 093°52'0 0.0
2018-May-13 14:00N 29°58' W 093°52'0 0.0
2018-May-13 13:30N 29°58' W 093°52'0 0.0
2018-May-13 13:00N 29°58' W 093°52'0 0.0
2018-May-13 12:30N 29°58' W 093°52'0 0.0
2018-May-13 12:00N 29°58' W 093°52'0 0.0
2018-May-13 11:30N 29°58' W 093°52'0 0.0
2018-May-13 11:00N 29°58' W 093°52'0 0.0
2018-May-13 10:30N 29°58' W 093°52'0 0.0
2018-May-13 10:00N 29°58' W 093°52'0 0.0
2018-May-13 09:30N 29°58' W 093°52'0 0.0
2018-May-13 09:00N 29°58' W 093°52'0 0.0
2018-May-13 08:30N 29°58' W 093°52'0 0.0
2018-May-13 08:00N 29°58' W 093°52'0 0.0
2018-May-13 07:30N 29°58' W 093°52'0 0.0
2018-May-13 07:00N 29°58' W 093°52'0 0.0
2018-May-13 06:30N 29°58' W 093°52'0 0.0
2018-May-13 06:00N 29°58' W 093°52'0 0.3
2018-May-13 05:31N 29°58' W 093°51'3 6.3
2018-May-13 05:00N 29°59' W 093°55'3 6.3
2018-May-13 04:30N 30°01' W 093°58'3 6.0
2018-May-13 04:00N 30°01' W 094°02'2 3.7
2018-May-13 03:30N 30°01' W 093°60'3 6.2
2018-May-13 03:00N 29°60' W 093°56'4 8.2
2018-May-13 02:30N 29°59' W 093°52'1 1.1
2018-May-13 02:00N 29°58' W 093°51'1 1.2
2018-May-13 01:30N 29°58' W 093°52'0 0.0
2018-May-13 01:00N 29°58' W 093°52'0 0.0
2018-May-13 00:30N 29°58' W 093°52'0 0.0
2018-May-13 00:00N 29°58' W 093°52'0 0.0
2018-May-12 23:30N 29°58' W 093°52'0 0.0
2018-May-12 22:59N 29°58' W 093°52'0 0.0
2018-May-12 22:30N 29°58' W 093°52'0 0.0
2018-May-12 22:00N 29°58' W 093°52'0 0.0
2018-May-12 21:30N 29°58' W 093°52'0 0.0
2018-May-12 21:00N 29°58' W 093°52'0 0.0
2018-May-12 20:30N 29°58' W 093°52'0 0.0
2018-May-12 19:59N 29°58' W 093°52'0 0.0
2018-May-12 19:30N 29°58' W 093°52'0 0.0
2018-May-12 19:01N 29°58' W 093°52'0 0.0
2018-May-12 18:30N 29°58' W 093°52'0 0.0
2018-May-12 18:00N 29°58' W 093°52'0 0.0
2018-May-12 17:30N 29°58' W 093°52'0 0.0
2018-May-12 17:00N 29°58' W 093°52'0 0.0
2018-May-12 16:30N 29°58' W 093°52'0 0.0
2018-May-12 16:00N 29°58' W 093°52'0 0.0
2018-May-12 15:31N 29°58' W 093°52'0 0.0
2018-May-12 15:00N 29°58' W 093°52'0 0.0
2018-May-12 14:30N 29°58' W 093°52'0 0.0
2018-May-12 14:00N 29°58' W 093°52'0 0.0
2018-May-12 13:30N 29°58' W 093°52'0 0.0
2018-May-12 13:00N 29°58' W 093°52'0 0.0
2018-May-12 12:29N 29°58' W 093°52'0 0.0
2018-May-12 12:00N 29°58' W 093°52'0 0.0
2018-May-12 11:29N 29°58' W 093°52'0 0.0
2018-May-12 11:00N 29°58' W 093°52'0 0.0
2018-May-12 10:30N 29°58' W 093°52'0 0.0
2018-May-12 10:00N 29°58' W 093°52'0 0.0
2018-May-12 09:30N 29°58' W 093°52'0 0.0
2018-May-12 09:00N 29°58' W 093°52'0 0.0
2018-May-12 08:30N 29°58' W 093°52'0 0.0
2018-May-12 08:00N 29°58' W 093°52'0 0.0
2018-May-12 07:30N 29°58' W 093°52'0 0.0
2018-May-12 07:00N 29°58' W 093°52'0 0.0
2018-May-12 06:30N 29°58' W 093°52'0 0.0
2018-May-12 06:00N 29°58' W 093°52'0 0.0
2018-May-12 05:30N 29°58' W 093°52'0 0.0
2018-May-12 05:00N 29°58' W 093°52'0 0.0
2018-May-12 04:30N 29°58' W 093°52'0 0.0
2018-May-12 03:59N 29°58' W 093°52'0 0.0
2018-May-12 03:30N 29°58' W 093°52'0 0.0
2018-May-12 03:00N 29°58' W 093°52'0 0.3
2018-May-12 02:30N 29°58' W 093°51'1 1.8
2018-May-12 02:00N 29°57' W 093°52'0 0.0
2018-May-12 01:30N 29°57' W 093°52'0 0.0
2018-May-12 01:00N 29°57' W 093°52'0 0.0
2018-May-12 00:30N 29°57' W 093°52'0 0.0
2018-May-12 00:00N 29°57' W 093°52'0 0.0
2018-May-11 23:30N 29°57' W 093°52'0 0.0
2018-May-11 23:00N 29°57' W 093°52'0 0.0
2018-May-11 22:31N 29°57' W 093°52'0 0.0
2018-May-11 22:00N 29°57' W 093°52'0 0.0
2018-May-11 21:30N 29°57' W 093°52'0 0.0
2018-May-11 21:00N 29°57' W 093°52'0 0.0
2018-May-11 20:31N 29°57' W 093°52'0 0.0
2018-May-11 20:00N 29°57' W 093°52'0 0.0
2018-May-11 19:30N 29°57' W 093°52'0 0.0
2018-May-11 19:00N 29°57' W 093°52'0 0.6
2018-May-11 18:30N 29°57' W 093°52'0 0.6
2018-May-11 18:00N 29°57' W 093°52'0 0.0
2018-May-11 17:30N 29°57' W 093°52'0 0.0
2018-May-11 17:00N 29°57' W 093°52'0 0.0
2018-May-11 16:30N 29°57' W 093°52'1 1.8
2018-May-11 16:00N 29°58' W 093°51'0 0.2
2018-May-11 15:29N 29°58' W 093°52'0 0.0
2018-May-11 15:00N 29°58' W 093°52'0 0.0
2018-May-11 14:30N 29°58' W 093°52'0 0.0
2018-May-11 14:00N 29°58' W 093°52'1 1.8
2018-May-11 13:30N 29°57' W 093°52'0 0.0
2018-May-11 13:00N 29°57' W 093°52'0 0.0
2018-May-11 12:30N 29°57' W 093°52'0 0.0
2018-May-11 12:00N 29°57' W 093°52'0 0.0
2018-May-11 11:30N 29°57' W 093°52'0 0.0
2018-May-11 11:01N 29°57' W 093°52'0 0.0
2018-May-11 10:30N 29°57' W 093°52'0 0.0
2018-May-11 10:00N 29°57' W 093°52'0 0.0
2018-May-11 09:30N 29°57' W 093°52'0 0.0
2018-May-11 09:00N 29°57' W 093°52'0 0.0
2018-May-11 08:30N 29°57' W 093°52'0 0.0
2018-May-11 08:00N 29°57' W 093°52'0 0.0
2018-May-11 07:30N 29°57' W 093°52'0 0.0
2018-May-11 07:00N 29°57' W 093°52'0 0.0
2018-May-11 06:30N 29°57' W 093°52'0 0.0
2018-May-11 06:01N 29°57' W 093°52'0 0.0
2018-May-11 05:30N 29°57' W 093°52'0 0.0
2018-May-11 05:00N 29°57' W 093°52'0 0.0
2018-May-11 04:30N 29°57' W 093°52'0 0.0
2018-May-11 04:00N 29°57' W 093°52'0 0.0
2018-May-11 03:30N 29°57' W 093°52'0 0.0
2018-May-11 03:00N 29°57' W 093°52'0 0.0
2018-May-11 02:30N 29°57' W 093°52'0 0.0
2018-May-11 02:00N 29°57' W 093°52'0 0.0
2018-May-11 01:30N 29°57' W 093°52'0 0.0
2018-May-11 01:00N 29°57' W 093°52'0 0.0
2018-May-11 00:30N 29°57' W 093°52'0 0.0
2018-May-11 00:00N 29°57' W 093°52'0 0.0
2018-May-10 23:30N 29°57' W 093°52'0 0.0
2018-May-10 23:00N 29°57' W 093°52'0 0.0
2018-May-10 22:31N 29°57' W 093°52'0 0.0
2018-May-10 22:00N 29°57' W 093°52'0 0.0
2018-May-10 21:30N 29°57' W 093°52'0 0.0
2018-May-10 21:00N 29°57' W 093°52'0 0.0
2018-May-10 20:30N 29°57' W 093°52'0 0.0
2018-May-10 20:00N 29°57' W 093°52'0 0.0
2018-May-10 19:31N 29°57' W 093°52'0 0.0
2018-May-10 19:00N 29°57' W 093°52'0 0.0
2018-May-10 18:30N 29°57' W 093°52'0 0.0
2018-May-10 18:01N 29°57' W 093°52'0 0.0
2018-May-10 17:30N 29°57' W 093°52'0 0.0
2018-May-10 17:00N 29°57' W 093°52'0 0.0
2018-May-10 16:30N 29°57' W 093°52'0 0.0
2018-May-10 16:00N 29°57' W 093°52'0 0.0
2018-May-10 15:30N 29°57' W 093°52'0 0.0
2018-May-10 15:00N 29°57' W 093°52'0 0.0
2018-May-10 14:30N 29°57' W 093°52'0 0.0
2018-May-10 14:00N 29°57' W 093°52'0 0.0
2018-May-10 13:30N 29°57' W 093°52'0 0.0
2018-May-10 13:00N 29°57' W 093°52'0 0.0
2018-May-10 12:31N 29°57' W 093°52'0 0.0
2018-May-10 12:01N 29°57' W 093°52'0 0.0
2018-May-10 11:30N 29°57' W 093°52'0 0.0
2018-May-10 11:00N 29°57' W 093°52'0 0.0
2018-May-10 10:30N 29°57' W 093°52'0 0.0
2018-May-10 10:00N 29°57' W 093°52'0 0.0
2018-May-10 09:30N 29°57' W 093°52'0 0.0
2018-May-10 09:00N 29°57' W 093°52'0 0.0
2018-May-10 08:30N 29°57' W 093°52'0 0.0
2018-May-10 08:01N 29°57' W 093°52'0 0.0
2018-May-10 07:30N 29°57' W 093°52'0 0.0
2018-May-10 07:00N 29°57' W 093°52'0 0.0
2018-May-10 06:30N 29°57' W 093°52'0 0.0
2018-May-10 06:00N 29°57' W 093°52'0 0.0
2018-May-10 05:30N 29°57' W 093°52'0 0.0
2018-May-10 05:00N 29°57' W 093°52'0 0.0
2018-May-10 04:30N 29°57' W 093°52'0 0.0
2018-May-10 04:00N 29°57' W 093°52'0 0.0
2018-May-10 03:30N 29°57' W 093°52'0 0.0
2018-May-10 03:00N 29°57' W 093°52'0 0.0
2018-May-10 02:31N 29°57' W 093°52'0 0.0
2018-May-10 02:00N 29°57' W 093°52'0 0.0
2018-May-10 01:30N 29°57' W 093°52'0 0.0
2018-May-10 01:00N 29°57' W 093°52'0 0.0
2018-May-10 00:30N 29°57' W 093°52'0 0.0
2018-May-10 00:00N 29°57' W 093°52'0 0.0
2018-May-09 23:30N 29°57' W 093°52'0 0.0
2018-May-09 23:00N 29°57' W 093°52'0 0.0
2018-May-09 22:30N 29°57' W 093°52'0 0.0
2018-May-09 22:01N 29°57' W 093°52'0 0.0
2018-May-09 21:30N 29°57' W 093°52'0 0.0
2018-May-09 21:00N 29°57' W 093°52'0 0.0
2018-May-09 20:30N 29°57' W 093°52'0 0.0
2018-May-09 20:00N 29°57' W 093°52'0 0.0
2018-May-09 19:30N 29°57' W 093°52'  
Track history (hours):
 
Tides and Currents Weather Stations Pressure Air Temp Water Temp Dewpoint Dewpoint Depression Visibility Wind Speed Wind Dir Waves Ship Positions

Ambrie Dupre

Owner: Dupre Marine Transportation, LCC, Houma, LA. More information available from US FCC via Universal Licensing System and Coast Guard Vessel Documentation Center.

Last reported at 2018-May-19 19:09 UTC. Time now 2018-May-20 09:50 UTC.
Position N 29°46' W 095°04'.

Length 24 m; draft 3 m.

Type: . MMSI: 367680760.

Date/timePositionNaut miles runAvg speedWind from/ knotsBaromVisibWave heightAir tempDewpointWater temp
2018-May-19 19:09N 29°46' W 095°04'2 0.2
2018-May-19 05:54N 29°44' W 095°03'0 0.0
2018-May-19 04:26N 29°44' W 095°03'0 0.0
2018-May-19 02:33N 29°44' W 095°03'0 0.0
2018-May-19 02:28N 29°44' W 095°03'0 0.1
2018-May-18 21:30N 29°44' W 095°03'5 2.9
2018-May-18 19:53N 29°44' W 095°09'2 0.2
2018-May-18 13:40N 29°45' W 095°10'1 6.2
2018-May-18 13:29N 29°44' W 095°09'3 2.0
2018-May-18 11:47N 29°46' W 095°06'3 5.1
2018-May-18 11:17N 29°44' W 095°08'2 6.2
2018-May-18 10:59N 29°45' W 095°10'1 1.4
2018-May-18 10:30N 29°45' W 095°10'0 0.0
2018-May-18 10:00N 29°45' W 095°10'0 0.0
2018-May-18 09:30N 29°45' W 095°10'0 0.0
2018-May-18 09:00N 29°45' W 095°10'0 0.0
2018-May-18 08:30N 29°45' W 095°10'0 0.0
2018-May-18 08:00N 29°45' W 095°10'0 0.0
2018-May-18 07:30N 29°45' W 095°10'0 0.0
2018-May-18 07:00N 29°45' W 095°10'0 0.0
2018-May-18 06:30N 29°45' W 095°10'0 0.0
2018-May-18 06:00N 29°45' W 095°10'0 0.0
2018-May-18 05:30N 29°45' W 095°10'0 0.0
2018-May-18 05:00N 29°45' W 095°10'0 0.0
2018-May-18 04:30N 29°45' W 095°10'0 0.0
2018-May-18 04:00N 29°45' W 095°10'0 0.0
2018-May-18 03:30N 29°45' W 095°10'0 0.0
2018-May-18 03:00N 29°45' W 095°10'0 0.5
2018-May-18 02:30N 29°45' W 095°10'0 0.3
2018-May-18 01:50N 29°45' W 095°10'0 0.0
2018-May-18 01:28N 29°45' W 095°10'0 0.1
2018-May-17 20:32N 29°45' W 095°10'0 3.4
2018-May-17 20:24N 29°45' W 095°10'0 0.2
2018-May-17 18:26N 29°45' W 095°10'0 0.2
2018-May-17 17:06N 29°45' W 095°10'0 0.4
2018-May-17 16:05N 29°45' W 095°10'1 5.2
2018-May-17 15:51N 29°44' W 095°09'0 0.8
2018-May-17 15:25N 29°44' W 095°09'2 2.0
2018-May-17 14:40N 29°45' W 095°10'0 1.8
2018-May-17 14:23N 29°45' W 095°10'0 0.0
2018-May-17 14:00N 29°45' W 095°10'0 0.0
2018-May-17 13:30N 29°45' W 095°10'0 0.0
2018-May-17 13:00N 29°45' W 095°10'0 0.0
2018-May-17 12:29N 29°45' W 095°10'0 0.0
2018-May-17 11:52N 29°45' W 095°10'0 0.0
2018-May-17 11:30N 29°45' W 095°10'0 0.0
2018-May-17 10:57N 29°45' W 095°10'0 0.0
2018-May-17 10:29N 29°45' W 095°10'0 0.0
2018-May-17 10:00N 29°45' W 095°10'0 0.0
2018-May-17 09:30N 29°45' W 095°10'0 0.0
2018-May-17 09:00N 29°45' W 095°10'0 0.3
2018-May-17 08:27N 29°45' W 095°10'0 0.0
2018-May-17 08:00N 29°45' W 095°10'0 0.1
2018-May-17 07:30N 29°45' W 095°10'0 0.1
2018-May-17 06:45N 29°45' W 095°10'0 1.7
2018-May-17 06:28N 29°45' W 095°10'2 3.5
2018-May-17 05:58N 29°44' W 095°08'2 5.2
2018-May-17 05:30N 29°45' W 095°06'2 3.5
2018-May-17 05:00N 29°45' W 095°04'2 4.9
2018-May-17 04:30N 29°43' W 095°01'2 4.4
2018-May-17 03:59N 29°42' W 094°60'2 5.1
2018-May-17 03:30N 29°40' W 094°58'3 5.8
2018-May-17 03:00N 29°37' W 094°57'3 5.7
2018-May-17 02:30N 29°34' W 094°56'3 5.6
2018-May-17 02:00N 29°32' W 094°54'3 5.5
2018-May-17 01:30N 29°30' W 094°52'3 5.8
2018-May-17 01:00N 29°27' W 094°51'3 5.9
2018-May-17 00:30N 29°24' W 094°49'3 5.4
2018-May-17 00:00N 29°22' W 094°47'3 5.2
2018-May-16 23:30N 29°24' W 094°45'1 2.4
2018-May-16 23:00N 29°25' W 094°44'1 2.7
2018-May-16 22:30N 29°26' W 094°43'0 0.2
2018-May-16 22:00N 29°26' W 094°43'0 0.0
2018-May-16 21:30N 29°26' W 094°43'0 0.0
2018-May-16 21:00N 29°26' W 094°43'0 0.0
2018-May-16 20:30N 29°26' W 094°43'0 0.0
2018-May-16 20:00N 29°26' W 094°43'15 3.0
2018-May-16 15:03N 29°33' W 094°28'1 3.1
2018-May-16 14:53N 29°33' W 094°28'2 4.5
2018-May-16 14:30N 29°34' W 094°26'2 3.9
2018-May-16 14:00N 29°35' W 094°25'2 4.0
2018-May-16 13:30N 29°36' W 094°23'2 4.7
2018-May-16 13:00N 29°37' W 094°20'2 4.8
2018-May-16 12:30N 29°38' W 094°18'2 5.0
2018-May-16 12:00N 29°39' W 094°15'3 5.1
2018-May-16 11:30N 29°40' W 094°13'3 5.1
2018-May-16 11:00N 29°41' W 094°10'2 4.7
2018-May-16 10:30N 29°43' W 094°08'3 5.1
2018-May-16 10:00N 29°44' W 094°05'3 5.1
2018-May-16 09:30N 29°46' W 094°03'3 5.1
2018-May-16 09:00N 29°47' W 094°01'2 4.4
2018-May-16 08:30N 29°49' W 093°59'2 4.0
2018-May-16 08:00N 29°50' W 093°57'3 6.4
2018-May-16 07:30N 29°53' W 093°55'4 7.3
2018-May-16 07:00N 29°56' W 093°53'3 6.1
2018-May-16 06:30N 29°59' W 093°52'3 6.5
2018-May-16 06:00N 29°59' W 093°55'3 5.6
2018-May-16 05:30N 30°01' W 093°58'3 5.5
2018-May-16 05:00N 30°01' W 094°01'3 5.4
2018-May-16 04:30N 30°04' W 094°02'1 1.8
2018-May-16 03:58N 30°04' W 094°03'1 2.0
2018-May-16 03:29N 30°05' W 094°04'0 0.0
2018-May-16 03:00N 30°05' W 094°04'0 0.0
2018-May-16 02:30N 30°05' W 094°04'0 0.0
2018-May-16 02:00N 30°05' W 094°04'0 0.0
2018-May-16 01:30N 30°05' W 094°04'0 0.0
2018-May-16 00:59N 30°05' W 094°04'0 0.0
2018-May-16 00:27N 30°05' W 094°04'0 0.0
2018-May-16 00:00N 30°05' W 094°04'0 0.0
2018-May-15 23:30N 30°05' W 094°04'0 0.0
2018-May-15 23:00N 30°05' W 094°04'0 0.0
2018-May-15 22:30N 30°05' W 094°04'0 0.0
2018-May-15 22:00N 30°05' W 094°04'0 0.0
2018-May-15 21:30N 30°05' W 094°04'0 0.0
2018-May-15 21:00N 30°05' W 094°04'0 0.0
2018-May-15 20:30N 30°05' W 094°04'0 0.0
2018-May-15 20:00N 30°05' W 094°04'0 0.0
2018-May-15 19:30N 30°05' W 094°04'0 0.0
2018-May-15 19:00N 30°05' W 094°04'0 0.0
2018-May-15 18:30N 30°05' W 094°04'0 0.0
2018-May-15 18:00N 30°05' W 094°04'0 0.0
2018-May-15 17:30N 30°05' W 094°04'0 0.0
2018-May-15 17:00N 30°05' W 094°04'0 0.0
2018-May-15 16:30N 30°05' W 094°04'0 0.0
2018-May-15 16:00N 30°05' W 094°04'0 0.0
2018-May-15 15:30N 30°05' W 094°04'0 0.0
2018-May-15 14:59N 30°05' W 094°04'0 0.0
2018-May-15 14:30N 30°05' W 094°04'0 0.0
2018-May-15 14:00N 30°05' W 094°04'0 0.0
2018-May-15 13:30N 30°05' W 094°04'0 0.0
2018-May-15 13:00N 30°05' W 094°04'0 0.0
2018-May-15 12:28N 30°05' W 094°04'0 0.0
2018-May-15 12:00N 30°05' W 094°04'0 0.0
2018-May-15 11:30N 30°05' W 094°04'0 0.0
2018-May-15 11:00N 30°05' W 094°04'0 0.0
2018-May-15 10:30N 30°05' W 094°04'0 0.0
2018-May-15 09:59N 30°05' W 094°04'0 0.0
2018-May-15 09:30N 30°05' W 094°04'0 0.0
2018-May-15 09:00N 30°05' W 094°04'0 0.0
2018-May-15 08:30N 30°05' W 094°04'0 0.0
2018-May-15 08:00N 30°05' W 094°04'0 0.0
2018-May-15 07:30N 30°05' W 094°04'0 0.0
2018-May-15 06:59N 30°05' W 094°04'0 0.0
2018-May-15 06:30N 30°05' W 094°04'0 0.0
2018-May-15 05:59N 30°05' W 094°04'0 0.0
2018-May-15 05:30N 30°05' W 094°04'0 0.0
2018-May-15 05:00N 30°05' W 094°04'0 0.0
2018-May-15 04:30N 30°05' W 094°04'0 0.0
2018-May-15 04:00N 30°05' W 094°04'0 0.0
2018-May-15 03:30N 30°05' W 094°04'0 0.0
2018-May-15 03:00N 30°05' W 094°04'0 0.0
2018-May-15 02:30N 30°05' W 094°04'0 0.0
2018-May-15 02:00N 30°05' W 094°04'0 0.0
2018-May-15 01:28N 30°05' W 094°04'0 0.0
2018-May-15 01:00N 30°05' W 094°04'0 0.0
2018-May-15 00:30N 30°05' W 094°04'0 0.0
2018-May-15 00:00N 30°05' W 094°04'0 0.0
2018-May-14 23:30N 30°05' W 094°04'0 0.0
2018-May-14 22:58N 30°05' W 094°04'0 0.0
2018-May-14 22:30N 30°05' W 094°04'0 0.0
2018-May-14 22:00N 30°05' W 094°04'0 0.0
2018-May-14 21:30N 30°05' W 094°04'0 0.0
2018-May-14 21:00N 30°05' W 094°04'0 0.0
2018-May-14 20:30N 30°05' W 094°04'0 0.0
2018-May-14 20:00N 30°05' W 094°04'0 0.0
2018-May-14 19:29N 30°05' W 094°04'0 0.0
2018-May-14 19:00N 30°05' W 094°04'0 0.0
2018-May-14 18:30N 30°05' W 094°04'0 0.0
2018-May-14 18:00N 30°05' W 094°04'0 0.0
2018-May-14 17:30N 30°05' W 094°04'0 0.0
2018-May-14 17:00N 30°05' W 094°04'0 0.0
2018-May-14 16:30N 30°05' W 094°04'0 0.0
2018-May-14 16:00N 30°05' W 094°04'0 0.0
2018-May-14 15:30N 30°05' W 094°04'0 0.0
2018-May-14 15:00N 30°05' W 094°04'0 0.0
2018-May-14 14:30N 30°05' W 094°04'0 0.0
2018-May-14 14:00N 30°05' W 094°04'0 0.0
2018-May-14 13:30N 30°05' W 094°04'0 0.0
2018-May-14 13:00N 30°05' W 094°04'0 0.0
2018-May-14 12:30N 30°05' W 094°04'0 0.0
2018-May-14 12:00N 30°05' W 094°04'0 0.0
2018-May-14 11:30N 30°05' W 094°04'0 0.0
2018-May-14 10:59N 30°05' W 094°04'0 0.0
2018-May-14 10:30N 30°05' W 094°04'0 0.0
2018-May-14 10:00N 30°05' W 094°04'0 0.0
2018-May-14 09:29N 30°05' W 094°04'0 0.1
2018-May-14 09:00N 30°05' W 094°04'0 0.0
2018-May-14 08:30N 30°05' W 094°04'1 2.2
2018-May-14 08:00N 30°04' W 094°03'0 0.0
2018-May-14 07:30N 30°04' W 094°03'0 0.0
2018-May-14 07:00N 30°04' W 094°03'0 0.0
2018-May-14 06:30N 30°04' W 094°03'0 0.0
2018-May-14 06:00N 30°04' W 094°03'0 0.0
2018-May-14 05:30N 30°04' W 094°03'0 0.0
2018-May-14 04:59N 30°04' W 094°03'0 0.0
2018-May-14 04:30N 30°04' W 094°03'0 0.0
2018-May-14 04:00N 30°04' W 094°03'0 0.0
2018-May-14 03:30N 30°04' W 094°03'0 0.0
2018-May-14 02:59N 30°04' W 094°03'0 0.0
2018-May-14 02:29N 30°04' W 094°03'0 0.0
2018-May-14 02:00N 30°04' W 094°03'0 0.0
2018-May-14 01:30N 30°04' W 094°03'1 1.0
2018-May-14 01:00N 30°04' W 094°03'3 5.9
2018-May-14 00:30N 30°01' W 094°01'3 5.9
2018-May-14 00:00N 30°01' W 093°58'3 6.2
2018-May-13 23:30N 29°59' W 093°55'3 6.5
2018-May-13 23:00N 29°58' W 093°51'1 1.9
2018-May-13 22:30N 29°57' W 093°52'1 1.6
2018-May-13 22:00N 29°58' W 093°51'0 0.5
2018-May-13 21:30N 29°58' W 093°52'0 0.0
2018-May-13 21:00N 29°58' W 093°52'0 0.0
2018-May-13 20:30N 29°58' W 093°52'0 0.0
2018-May-13 20:00N 29°58' W 093°52'0 0.0
2018-May-13 19:30N 29°58' W 093°52'0 0.0
2018-May-13 19:00N 29°58' W 093°52'0 0.0
2018-May-13 18:30N 29°58' W 093°52'0 0.0
2018-May-13 18:00N 29°58' W 093°52'0 0.0
2018-May-13 17:30N 29°58' W 093°52'0 0.0
2018-May-13 17:00N 29°58' W 093°52'0 0.0
2018-May-13 16:30N 29°58' W 093°52'0 0.0
2018-May-13 16:00N 29°58' W 093°52'0 0.0
2018-May-13 15:30N 29°58' W 093°52'0 0.0
2018-May-13 15:00N 29°58' W 093°52'0 0.0
2018-May-13 14:30N 29°58' W 093°52'0 0.0
2018-May-13 14:00N 29°58' W 093°52'0 0.0
2018-May-13 13:30N 29°58' W 093°52'0 0.0
2018-May-13 13:00N 29°58' W 093°52'0 0.0
2018-May-13 12:30N 29°58' W 093°52'0 0.0
2018-May-13 12:00N 29°58' W 093°52'0 0.0
2018-May-13 11:30N 29°58' W 093°52'0 0.0
2018-May-13 11:00N 29°58' W 093°52'0 0.0
2018-May-13 10:30N 29°58' W 093°52'0 0.0
2018-May-13 10:00N 29°58' W 093°52'0 0.0
2018-May-13 09:30N 29°58' W 093°52'0 0.0
2018-May-13 09:00N 29°58' W 093°52'0 0.0
2018-May-13 08:30N 29°58' W 093°52'0 0.0
2018-May-13 08:00N 29°58' W 093°52'0 0.0
2018-May-13 07:30N 29°58' W 093°52'0 0.0
2018-May-13 07:00N 29°58' W 093°52'0 0.0
2018-May-13 06:30N 29°58' W 093°52'0 0.0
2018-May-13 06:00N 29°58' W 093°52'0 0.3
2018-May-13 05:31N 29°58' W 093°51'3 6.3
2018-May-13 05:00N 29°59' W 093°55'3 6.3
2018-May-13 04:30N 30°01' W 093°58'3 6.0
2018-May-13 04:00N 30°01' W 094°02'2 3.7
2018-May-13 03:30N 30°01' W 093°60'3 6.2
2018-May-13 03:00N 29°60' W 093°56'4 8.2
2018-May-13 02:30N 29°59' W 093°52'1 1.1
2018-May-13 02:00N 29°58' W 093°51'1 1.2
2018-May-13 01:30N 29°58' W 093°52'0 0.0
2018-May-13 01:00N 29°58' W 093°52'0 0.0
2018-May-13 00:30N 29°58' W 093°52'0 0.0
2018-May-13 00:00N 29°58' W 093°52'0 0.0
2018-May-12 23:30N 29°58' W 093°52'0 0.0
2018-May-12 22:59N 29°58' W 093°52'0 0.0
2018-May-12 22:30N 29°58' W 093°52'0 0.0
2018-May-12 22:00N 29°58' W 093°52'0 0.0
2018-May-12 21:30N 29°58' W 093°52'0 0.0
2018-May-12 21:00N 29°58' W 093°52'0 0.0
2018-May-12 20:30N 29°58' W 093°52'0 0.0
2018-May-12 19:59N 29°58' W 093°52'0 0.0
2018-May-12 19:30N 29°58' W 093°52'0 0.0
2018-May-12 19:01N 29°58' W 093°52'0 0.0
2018-May-12 18:30N 29°58' W 093°52'0 0.0
2018-May-12 18:00N 29°58' W 093°52'0 0.0
2018-May-12 17:30N 29°58' W 093°52'0 0.0
2018-May-12 17:00N 29°58' W 093°52'0 0.0
2018-May-12 16:30N 29°58' W 093°52'0 0.0
2018-May-12 16:00N 29°58' W 093°52'0 0.0
2018-May-12 15:31N 29°58' W 093°52'0 0.0
2018-May-12 15:00N 29°58' W 093°52'0 0.0
2018-May-12 14:30N 29°58' W 093°52'0 0.0
2018-May-12 14:00N 29°58' W 093°52'0 0.0
2018-May-12 13:30N 29°58' W 093°52'0 0.0
2018-May-12 13:00N 29°58' W 093°52'0 0.0
2018-May-12 12:29N 29°58' W 093°52'0 0.0
2018-May-12 12:00N 29°58' W 093°52'0 0.0
2018-May-12 11:29N 29°58' W 093°52'0 0.0
2018-May-12 11:00N 29°58' W 093°52'0 0.0
2018-May-12 10:30N 29°58' W 093°52'0 0.0
2018-May-12 10:00N 29°58' W 093°52'0 0.0
2018-May-12 09:30N 29°58' W 093°52'0 0.0
2018-May-12 09:00N 29°58' W 093°52'0 0.0
2018-May-12 08:30N 29°58' W 093°52'0 0.0
2018-May-12 08:00N 29°58' W 093°52'0 0.0
2018-May-12 07:30N 29°58' W 093°52'0 0.0
2018-May-12 07:00N 29°58' W 093°52'0 0.0
2018-May-12 06:30N 29°58' W 093°52'0 0.0
2018-May-12 06:00N 29°58' W 093°52'0 0.0
2018-May-12 05:30N 29°58' W 093°52'0 0.0
2018-May-12 05:00N 29°58' W 093°52'0 0.0
2018-May-12 04:30N 29°58' W 093°52'0 0.0
2018-May-12 03:59N 29°58' W 093°52'0 0.0
2018-May-12 03:30N 29°58' W 093°52'0 0.0
2018-May-12 03:00N 29°58' W 093°52'0 0.3
2018-May-12 02:30N 29°58' W 093°51'1 1.8
2018-May-12 02:00N 29°57' W 093°52'0 0.0
2018-May-12 01:30N 29°57' W 093°52'0 0.0
2018-May-12 01:00N 29°57' W 093°52'0 0.0
2018-May-12 00:30N 29°57' W 093°52'0 0.0
2018-May-12 00:00N 29°57' W 093°52'0 0.0
2018-May-11 23:30N 29°57' W 093°52'0 0.0
2018-May-11 23:00N 29°57' W 093°52'0 0.0
2018-May-11 22:31N 29°57' W 093°52'0 0.0
2018-May-11 22:00N 29°57' W 093°52'0 0.0
2018-May-11 21:30N 29°57' W 093°52'0 0.0
2018-May-11 21:00N 29°57' W 093°52'0 0.0
2018-May-11 20:31N 29°57' W 093°52'0 0.0
2018-May-11 20:00N 29°57' W 093°52'0 0.0
2018-May-11 19:30N 29°57' W 093°52'0 0.0
2018-May-11 19:00N 29°57' W 093°52'0 0.6
2018-May-11 18:30N 29°57' W 093°52'0 0.6
2018-May-11 18:00N 29°57' W 093°52'0 0.0
2018-May-11 17:30N 29°57' W 093°52'0 0.0
2018-May-11 17:00N 29°57' W 093°52'0 0.0
2018-May-11 16:30N 29°57' W 093°52'1 1.8
2018-May-11 16:00N 29°58' W 093°51'0 0.2
2018-May-11 15:29N 29°58' W 093°52'0 0.0
2018-May-11 15:00N 29°58' W 093°52'0 0.0
2018-May-11 14:30N 29°58' W 093°52'0 0.0
2018-May-11 14:00N 29°58' W 093°52'1 1.8
2018-May-11 13:30N 29°57' W 093°52'0 0.0
2018-May-11 13:00N 29°57' W 093°52'0 0.0
2018-May-11 12:30N 29°57' W 093°52'0 0.0
2018-May-11 12:00N 29°57' W 093°52'0 0.0
2018-May-11 11:30N 29°57' W 093°52'0 0.0
2018-May-11 11:01N 29°57' W 093°52'0 0.0
2018-May-11 10:30N 29°57' W 093°52'0 0.0
2018-May-11 10:00N 29°57' W 093°52'0 0.0
2018-May-11 09:30N 29°57' W 093°52'0 0.0
2018-May-11 09:00N 29°57' W 093°52'0 0.0
2018-May-11 08:30N 29°57' W 093°52'0 0.0
2018-May-11 08:00N 29°57' W 093°52'0 0.0
2018-May-11 07:30N 29°57' W 093°52'0 0.0
2018-May-11 07:00N 29°57' W 093°52'0 0.0
2018-May-11 06:30N 29°57' W 093°52'0 0.0
2018-May-11 06:01N 29°57' W 093°52'0 0.0
2018-May-11 05:30N 29°57' W 093°52'0 0.0
2018-May-11 05:00N 29°57' W 093°52'0 0.0
2018-May-11 04:30N 29°57' W 093°52'0 0.0
2018-May-11 04:00N 29°57' W 093°52'0 0.0
2018-May-11 03:30N 29°57' W 093°52'0 0.0
2018-May-11 03:00N 29°57' W 093°52'0 0.0
2018-May-11 02:30N 29°57' W 093°52'0 0.0
2018-May-11 02:00N 29°57' W 093°52'0 0.0
2018-May-11 01:30N 29°57' W 093°52'0 0.0
2018-May-11 01:00N 29°57' W 093°52'0 0.0
2018-May-11 00:30N 29°57' W 093°52'0 0.0
2018-May-11 00:00N 29°57' W 093°52'0 0.0
2018-May-10 23:30N 29°57' W 093°52'0 0.0
2018-May-10 23:00N 29°57' W 093°52'0 0.0
2018-May-10 22:31N 29°57' W 093°52'0 0.0
2018-May-10 22:00N 29°57' W 093°52'0 0.0
2018-May-10 21:30N 29°57' W 093°52'0 0.0
2018-May-10 21:00N 29°57' W 093°52'0 0.0
2018-May-10 20:30N 29°57' W 093°52'0 0.0
2018-May-10 20:00N 29°57' W 093°52'0 0.0
2018-May-10 19:31N 29°57' W 093°52'0 0.0
2018-May-10 19:00N 29°57' W 093°52'0 0.0
2018-May-10 18:30N 29°57' W 093°52'0 0.0
2018-May-10 18:01N 29°57' W 093°52'0 0.0
2018-May-10 17:30N 29°57' W 093°52'0 0.0
2018-May-10 17:00N 29°57' W 093°52'0 0.0
2018-May-10 16:30N 29°57' W 093°52'0 0.0
2018-May-10 16:00N 29°57' W 093°52'0 0.0
2018-May-10 15:30N 29°57' W 093°52'0 0.0
2018-May-10 15:00N 29°57' W 093°52'0 0.0
2018-May-10 14:30N 29°57' W 093°52'0 0.0
2018-May-10 14:00N 29°57' W 093°52'0 0.0
2018-May-10 13:30N 29°57' W 093°52'0 0.0
2018-May-10 13:00N 29°57' W 093°52'0 0.0
2018-May-10 12:31N 29°57' W 093°52'0 0.0
2018-May-10 12:01N 29°57' W 093°52'0 0.0
2018-May-10 11:30N 29°57' W 093°52'0 0.0
2018-May-10 11:00N 29°57' W 093°52'0 0.0
2018-May-10 10:30N 29°57' W 093°52'0 0.0
2018-May-10 10:00N 29°57' W 093°52'0 0.0
2018-May-10 09:30N 29°57' W 093°52'0 0.0
2018-May-10 09:00N 29°57' W 093°52'0 0.0
2018-May-10 08:30N 29°57' W 093°52'0 0.0
2018-May-10 08:01N 29°57' W 093°52'0 0.0
2018-May-10 07:30N 29°57' W 093°52'0 0.0
2018-May-10 07:00N 29°57' W 093°52'0 0.0
2018-May-10 06:30N 29°57' W 093°52'0 0.0
2018-May-10 06:00N 29°57' W 093°52'0 0.0
2018-May-10 05:30N 29°57' W 093°52'0 0.0
2018-May-10 05:00N 29°57' W 093°52'0 0.0
2018-May-10 04:30N 29°57' W 093°52'0 0.0
2018-May-10 04:00N 29°57' W 093°52'0 0.0
2018-May-10 03:30N 29°57' W 093°52'0 0.0
2018-May-10 03:00N 29°57' W 093°52'0 0.0
2018-May-10 02:31N 29°57' W 093°52'0 0.0
2018-May-10 02:00N 29°57' W 093°52'0 0.0
2018-May-10 01:30N 29°57' W 093°52'0 0.0
2018-May-10 01:00N 29°57' W 093°52'0 0.0
2018-May-10 00:30N 29°57' W 093°52'0 0.0
2018-May-10 00:00N 29°57' W 093°52'0 0.0
2018-May-09 23:30N 29°57' W 093°52'0 0.0
2018-May-09 23:00N 29°57' W 093°52'0 0.0
2018-May-09 22:30N 29°57' W 093°52'0 0.0
2018-May-09 22:01N 29°57' W 093°52'0 0.0
2018-May-09 21:30N 29°57' W 093°52'0 0.0
2018-May-09 21:00N 29°57' W 093°52'0 0.0
2018-May-09 20:30N 29°57' W 093°52'0 0.0
2018-May-09 20:00N 29°57' W 093°52'0 0.0
2018-May-09 19:30N 29°57' W 093°52'  

Dump ship's entire track history